VE-0115 weather

Lamargas Heliport
Zulia, Venezuela

Public forecast

Using degrees Celsius for public forecast. Weather courtesy of forecast.io.

Closest aviation weather report (METAR) to Lamargas Heliport

Report is more than 6 hours old.

Closest report is Hacienda San José Airport, 38.0 nm (70.4 km) ESE. Retrieved 2009/08/18 12:00 UTC (10 years ago):

SVSS 181200Z 00000KT 5000 +HZ BKN030 XX/XX Q1014

Closest aviation forecast (TAF) to Lamargas Heliport

Closest forecast is La Chinita International Airport, 54.2 nm (100.3 km) N. Retrieved 2019/10/18 06:05 UTC (4 hours ago):

TAF SVMC 180400Z 1806/1906 09004KT 9999 SCT016 TX33/19Z TN24/08Z TEMPO 1806/1810 09008KT 9000 DZ BKN013